Time;durP1;ratioP1;P1;durP2;ratioP2;P2;SDS_P1;SDS_P2;PMS_P1;PMS_P2;Temp;Humidity;BMP_temperature;BMP_pressure;BME280_temperature;BME280_humidity;BME280_pressure;Samples;Min_cycle;Max_cycle;Signal;HPM_P1;HPM_P2
2024/04/27 00:01:26;;;;;;;;;;;;;;;;;;5477971;26;19952;-63
2024/04/27 00:03:55;;;;;;;;;;;;;;;;;;5479170;26;19928;-63
2024/04/27 00:06:21;;;;;;;;;;;;;;;;;;5486016;26;19928;-61
2024/04/27 00:08:47;;;;;;;;;;;;;;;;;;5493929;26;19931;-63
2024/04/27 00:11:13;;;;;;;;;;;;;;;;;;5469531;26;19957;-63
2024/04/27 00:13:39;;;;;;;;;;;;;;;;;;5475553;26;19935;-63
2024/04/27 00:16:04;;;;;;;;;;;;;;;;;;5471686;26;19940;-63
2024/04/27 00:18:30;;;;;;;;;;;;;;;;;;5478078;26;19928;-63
2024/04/27 00:20:56;;;;;;;;;;;;;;;;;;5488172;26;19981;-63
2024/04/27 00:23:22;;;;;;;;;;;;;;;;;;5447216;26;19935;-63
2024/04/27 00:25:48;;;;;;;;;;;;;;;;;;5479548;26;20004;-63
2024/04/27 00:28:14;;;;;;;;;;;;;;;;;;5481749;26;20242;-63
2024/04/27 00:30:40;;;;;;;;;;;;;;;;;;5477396;26;19928;-63
2024/04/27 00:33:06;;;;;;;;;;;;;;;;;;5485316;26;19928;-64
2024/04/27 00:35:32;;;;;;;;;;;;;;;;;;5441313;26;19934;-63
2024/04/27 00:37:58;;;;;;;;;;;;;;;;;;5485143;26;20043;-63
2024/04/27 00:40:24;;;;;;;;;;;;;;;;;;5473081;26;19928;-63
2024/04/27 00:42:49;;;;;;;;;;;;;;;;;;5489052;26;19928;-62
2024/04/27 00:45:15;;;;;;;;;;;;;;;;;;5491161;26;19928;-63
2024/04/27 00:47:41;;;;;;;;;;;;;;;;;;5481780;26;19996;-63
2024/04/27 00:50:09;;;;;;;;;;;;;;;;;;5470840;26;19928;-62
2024/04/27 00:52:35;;;;;;;;;;;;;;;;;;5482717;26;20223;-63
2024/04/27 00:55:01;;;;;;;;;;;;;;;;;;5485796;26;19935;-63
2024/04/27 00:57:26;;;;;;;;;;;;;;;;;;5476591;26;19928;-63
2024/04/27 00:59:52;;;;;;;;;;;;;;;;;;5459930;26;19928;-63
2024/04/27 01:02:18;;;;;;;;;;;;;;;;;;5474481;26;19935;-63
2024/04/27 01:04:44;;;;;;;;;;;;;;;;;;5489465;26;19999;-63
2024/04/27 01:07:10;;;;;;;;;;;;;;;;;;5481083;26;20378;-62
2024/04/27 01:09:36;;;;;;;;;;;;;;;;;;5470682;26;19964;-63
2024/04/27 01:12:02;;;;;;;;;;;;;;;;;;5476216;26;19928;-63
2024/04/27 01:14:27;;;;;;;;;;;;;;;;;;5478391;26;19928;-63
2024/04/27 01:16:53;;;;;;;;;;;;;;;;;;5476118;26;19935;-63
2024/04/27 01:19:19;;;;;;;;;;;;;;;;;;5473283;26;20377;-63
2024/04/27 01:21:47;;;;;;;;;;;;;;;;;;5489999;26;19934;-65
2024/04/27 01:24:13;;;;;;;;;;;;;;;;;;5491111;26;20325;-63
2024/04/27 01:26:40;;;;;;;;;;;;;;;;;;5481649;26;19927;-63
2024/04/27 01:29:07;;;;;;;;;;;;;;;;;;5488766;26;19936;-62
2024/04/27 01:31:33;;;;;;;;;;;;;;;;;;5473420;26;20026;-63
2024/04/27 01:33:59;;;;;;;;;;;;;;;;;;5478191;26;20270;-61
2024/04/27 01:36:25;;;;;;;;;;;;;;;;;;5481728;26;19932;-63
2024/04/27 01:38:50;;;;;;;;;;;;;;;;;;5487970;26;20273;-63
2024/04/27 01:41:17;;;;;;;;;;;;;;;;;;5494811;26;19928;-63
2024/04/27 01:43:42;;;;;;;;;;;;;;;;;;5445269;26;20305;-63
2024/04/27 01:46:09;;;;;;;;;;;;;;;;;;5480920;26;19928;-63
2024/04/27 01:48:35;;;;;;;;;;;;;;;;;;5486950;26;19997;-63
2024/04/27 01:51:01;;;;;;;;;;;;;;;;;;5486290;26;19939;-63
2024/04/27 01:53:27;;;;;;;;;;;;;;;;;;5480915;26;19960;-63
2024/04/27 01:55:53;;;;;;;;;;;;;;;;;;5481913;26;19928;-63
2024/04/27 01:58:19;;;;;;;;;;;;;;;;;;5479409;26;19960;-64
2024/04/27 02:00:44;;;;;;;;;;;;;;;;;;5471924;26;20386;-63
2024/04/27 02:03:10;;;;;;;;;;;;;;;;;;5473330;26;19943;-63
2024/04/27 02:05:38;;;;;;;;;;;;;;;;;;5474431;26;20378;-62
2024/04/27 02:08:03;;;;;;;;;;;;;;;;;;5477196;26;19960;-63
2024/04/27 02:10:29;;;;;;;;;;;;;;;;;;5473098;26;19938;-63
2024/04/27 02:12:55;;;;;;;;;;;;;;;;;;5483325;26;19998;-62
2024/04/27 02:15:22;;;;;;;;;;;;;;;;;;5486169;26;19939;-62
2024/04/27 02:20:32;;;;;;;;;;;;;;;;;;5470602;26;19993;-63
2024/04/27 02:22:58;;;;;;;;;;;;;;;;;;5482599;26;20339;-63
2024/04/27 02:25:24;;;;;;;;;;;;;;;;;;5473466;26;19935;-63
2024/04/27 02:27:50;;;;;;;;;;;;;;;;;;5478976;26;19935;-64
2024/04/27 02:30:15;;;;;;;;;;;;;;;;;;5487119;26;19932;-63
2024/04/27 02:32:41;;;;;;;;;;;;;;;;;;5474387;26;19936;-63
2024/04/27 02:35:07;;;;;;;;;;;;;;;;;;5485400;26;19928;-63
2024/04/27 02:37:33;;;;;;;;;;;;;;;;;;5476683;26;20481;-63
2024/04/27 02:39:59;;;;;;;;;;;;;;;;;;5477059;26;19928;-63
2024/04/27 02:42:25;;;;;;;;;;;;;;;;;;5473813;26;19936;-64
2024/04/27 02:44:51;;;;;;;;;;;;;;;;;;5485255;26;19928;-63
2024/04/27 02:47:16;;;;;;;;;;;;;;;;;;5483860;26;20323;-63
2024/04/27 02:49:42;;;;;;;;;;;;;;;;;;5487457;26;19927;-63
2024/04/27 02:52:08;;;;;;;;;;;;;;;;;;5481367;26;19927;-62
2024/04/27 02:54:34;;;;;;;;;;;;;;;;;;5484909;26;19943;-63
2024/04/27 02:57:00;;;;;;;;;;;;;;;;;;5477755;26;20378;-63
2024/04/27 02:59:29;;;;;;;;;;;;;;;;;;5476792;26;19964;-63
2024/04/27 03:01:55;;;;;;;;;;;;;;;;;;5475927;26;19938;-64
2024/04/27 03:04:21;;;;;;;;;;;;;;;;;;5485232;26;19928;-63
2024/04/27 03:06:46;;;;;;;;;;;;;;;;;;5485519;26;20258;-63
2024/04/27 03:09:12;;;;;;;;;;;;;;;;;;5488144;26;19928;-63
2024/04/27 03:11:38;;;;;;;;;;;;;;;;;;5472587;26;19947;-64
2024/04/27 03:14:04;;;;;;;;;;;;;;;;;;5477714;26;20370;-64
2024/04/27 03:16:30;;;;;;;;;;;;;;;;;;5470684;26;19935;-64
2024/04/27 03:18:56;;;;;;;;;;;;;;;;;;5487248;26;20342;-63
2024/04/27 03:21:24;;;;;;;;;;;;;;;;;;5468859;26;19968;-63
2024/04/27 03:23:49;;;;;;;;;;;;;;;;;;5468303;26;19952;-63
2024/04/27 03:26:16;;;;;;;;;;;;;;;;;;5492161;26;19951;-63
2024/04/27 03:28:41;;;;;;;;;;;;;;;;;;5482143;26;19948;-64
2024/04/27 03:31:07;;;;;;;;;;;;;;;;;;5475342;26;19997;-63
2024/04/27 03:33:33;;;;;;;;;;;;;;;;;;5488007;26;19943;-63
2024/04/27 03:35:59;;;;;;;;;;;;;;;;;;5474386;26;19929;-64
2024/04/27 03:38:25;;;;;;;;;;;;;;;;;;5478264;26;19932;-64
2024/04/27 03:40:51;;;;;;;;;;;;;;;;;;5475413;26;19934;-63
2024/04/27 03:43:17;;;;;;;;;;;;;;;;;;5478572;26;20341;-63
2024/04/27 03:45:44;;;;;;;;;;;;;;;;;;5483779;26;19936;-63
2024/04/27 03:48:10;;;;;;;;;;;;;;;;;;5481826;26;20013;-64
2024/04/27 03:50:36;;;;;;;;;;;;;;;;;;5474592;26;19936;-63
2024/04/27 03:53:03;;;;;;;;;;;;;;;;;;5478328;26;19936;-63
2024/04/27 03:55:30;;;;;;;;;;;;;;;;;;5483102;26;20394;-64
2024/04/27 03:57:56;;;;;;;;;;;;;;;;;;5479486;26;19996;-63
2024/04/27 04:00:22;;;;;;;;;;;;;;;;;;5480342;26;20326;-63
2024/04/27 04:02:48;;;;;;;;;;;;;;;;;;5457828;26;19973;-63
2024/04/27 04:05:13;;;;;;;;;;;;;;;;;;5464131;26;19928;-63
2024/04/27 04:07:39;;;;;;;;;;;;;;;;;;5482535;26;20685;-63
2024/04/27 04:10:05;;;;;;;;;;;;;;;;;;5477213;26;19996;-63
2024/04/27 04:12:31;;;;;;;;;;;;;;;;;;5482385;26;19932;-63
2024/04/27 04:14:57;;;;;;;;;;;;;;;;;;5485877;26;19928;-63
2024/04/27 04:17:23;;;;;;;;;;;;;;;;;;5479284;26;20273;-63
2024/04/27 04:19:49;;;;;;;;;;;;;;;;;;5481796;26;20003;-64
2024/04/27 04:22:15;;;;;;;;;;;;;;;;;;5476321;26;19943;-64
2024/04/27 04:24:41;;;;;;;;;;;;;;;;;;5468067;26;19972;-63
2024/04/27 04:27:07;;;;;;;;;;;;;;;;;;5470789;26;19928;-63
2024/04/27 04:29:33;;;;;;;;;;;;;;;;;;5479144;26;19939;-61
2024/04/27 04:31:59;;;;;;;;;;;;;;;;;;5481618;26;19932;-62
2024/04/27 04:34:24;;;;;;;;;;;;;;;;;;5481935;26;19996;-63
2024/04/27 04:36:50;;;;;;;;;;;;;;;;;;5481916;26;19928;-64
2024/04/27 04:39:16;;;;;;;;;;;;;;;;;;5482777;26;19932;-64
2024/04/27 04:41:43;;;;;;;;;;;;;;;;;;5484437;26;20306;-63
2024/04/27 04:44:09;;;;;;;;;;;;;;;;;;5484542;26;19939;-64
2024/04/27 04:46:35;;;;;;;;;;;;;;;;;;5474715;26;19928;-63
2024/04/27 04:49:01;;;;;;;;;;;;;;;;;;5474976;26;19929;-63
2024/04/27 04:51:27;;;;;;;;;;;;;;;;;;5485432;26;19927;-63
2024/04/27 04:53:53;;;;;;;;;;;;;;;;;;5480993;26;19944;-63
2024/04/27 04:56:18;;;;;;;;;;;;;;;;;;5485181;26;19928;-63
2024/04/27 04:58:44;;;;;;;;;;;;;;;;;;5490175;26;19929;-63
2024/04/27 05:01:10;;;;;;;;;;;;;;;;;;5480935;26;19929;-64
2024/04/27 05:03:36;;;;;;;;;;;;;;;;;;5472821;26;19944;-63
2024/04/27 05:06:02;;;;;;;;;;;;;;;;;;5489386;26;20330;-63
2024/04/27 05:08:28;;;;;;;;;;;;;;;;;;5477059;26;19934;-63
2024/04/27 05:10:54;;;;;;;;;;;;;;;;;;5473971;26;19935;-63
2024/04/27 05:13:20;;;;;;;;;;;;;;;;;;5485259;26;20379;-62
2024/04/27 05:15:46;;;;;;;;;;;;;;;;;;5486519;26;19928;-63
2024/04/27 05:18:11;;;;;;;;;;;;;;;;;;5450680;26;20319;-63
2024/04/27 05:20:37;;;;;;;;;;;;;;;;;;5481558;26;19934;-63
2024/04/27 05:23:03;;;;;;;;;;;;;;;;;;5450454;26;19936;-63
2024/04/27 05:25:29;;;;;;;;;;;;;;;;;;5482573;26;19928;-64
2024/04/27 05:27:55;;;;;;;;;;;;;;;;;;5480069;26;19998;-63
2024/04/27 05:30:21;;;;;;;;;;;;;;;;;;5470994;26;19967;-63
2024/04/27 05:32:47;;;;;;;;;;;;;;;;;;5476554;26;19973;-63
2024/04/27 05:35:12;;;;;;;;;;;;;;;;;;5479755;26;19928;-63
2024/04/27 05:37:39;;;;;;;;;;;;;;;;;;5478076;26;20055;-63
2024/04/27 05:40:05;;;;;;;;;;;;;;;;;;5478668;26;20273;-63
2024/04/27 05:42:31;;;;;;;;;;;;;;;;;;5485877;26;19929;-62
2024/04/27 05:44:57;;;;;;;;;;;;;;;;;;5487032;26;19939;-62
2024/04/27 05:47:23;;;;;;;;;;;;;;;;;;5474810;26;19929;-62
2024/04/27 05:49:48;;;;;;;;;;;;;;;;;;5476755;26;19928;-62
2024/04/27 05:52:14;;;;;;;;;;;;;;;;;;5483944;26;20373;-62
2024/04/27 05:54:40;;;;;;;;;;;;;;;;;;5478785;26;19929;-63
2024/04/27 05:57:06;;;;;;;;;;;;;;;;;;5487542;26;19932;-63
2024/04/27 05:59:34;;;;;;;;;;;;;;;;;;5485158;26;21482;-63
2024/04/27 06:01:59;;;;;;;;;;;;;;;;;;5489256;26;20374;-63
2024/04/27 06:04:25;;;;;;;;;;;;;;;;;;5477482;26;19935;-63
2024/04/27 06:06:53;;;;;;;;;;;;;;;;;;5485469;26;20407;-64
2024/04/27 06:09:19;;;;;;;;;;;;;;;;;;5482646;26;19939;-62
2024/04/27 06:11:45;;;;;;;;;;;;;;;;;;5480778;26;19928;-63
2024/04/27 06:14:10;;;;;;;;;;;;;;;;;;5471111;26;19937;-63
2024/04/27 06:16:36;;;;;;;;;;;;;;;;;;5479353;26;19940;-63
2024/04/27 06:19:02;;;;;;;;;;;;;;;;;;5479250;26;19943;-63
2024/04/27 06:21:28;;;;;;;;;;;;;;;;;;5475360;26;19964;-63
2024/04/27 06:23:54;;;;;;;;;;;;;;;;;;5485646;26;19928;-62
2024/04/27 06:26:20;;;;;;;;;;;;;;;;;;5474299;26;19928;-63
2024/04/27 06:28:46;;;;;;;;;;;;;;;;;;5469994;26;20307;-63
2024/04/27 06:31:12;;;;;;;;;;;;;;;;;;5471647;26;19992;-63
2024/04/27 06:33:38;;;;;;;;;;;;;;;;;;5476665;26;19928;-63
2024/04/27 06:36:03;;;;;;;;;;;;;;;;;;5475931;26;19935;-62
2024/04/27 06:38:29;;;;;;;;;;;;;;;;;;5466363;26;19940;-62
2024/04/27 06:40:55;;;;;;;;;;;;;;;;;;5483203;26;20262;-63
2024/04/27 06:43:21;;;;;;;;;;;;;;;;;;5483223;26;19928;-62
2024/04/27 06:45:47;;;;;;;;;;;;;;;;;;5481669;26;19936;-64
2024/04/27 06:48:13;;;;;;;;;;;;;;;;;;5469700;26;19979;-63
2024/04/27 06:50:39;;;;;;;;;;;;;;;;;;5476882;26;21526;-59
2024/04/27 06:53:04;;;;;;;;;;;;;;;;;;5467129;26;19928;-57
2024/04/27 06:55:30;;;;;;;;;;;;;;;;;;5469501;26;19932;-59
2024/04/27 06:57:56;;;;;;;;;;;;;;;;;;5478856;26;19935;-55
2024/04/27 07:00:22;;;;;;;;;;;;;;;;;;5477478;26;19935;-59
2024/04/27 07:02:48;;;;;;;;;;;;;;;;;;5472399;26;19935;-59
2024/04/27 07:05:16;;;;;;;;;;;;;;;;;;5482437;26;19928;-59
2024/04/27 07:07:42;;;;;;;;;;;;;;;;;;5483482;26;19952;-58
2024/04/27 07:10:08;;;;;;;;;;;;;;;;;;5473101;26;19935;-58
2024/04/27 07:12:33;;;;;;;;;;;;;;;;;;5472326;26;19978;-59
2024/04/27 07:15:00;;;;;;;;;;;;;;;;;;5478378;26;19943;-57
2024/04/27 07:17:26;;;;;;;;;;;;;;;;;;5479026;26;20046;-58
2024/04/27 07:19:52;;;;;;;;;;;;;;;;;;5477941;26;19944;-58
2024/04/27 07:22:17;;;;;;;;;;;;;;;;;;5478759;26;19937;-58
2024/04/27 07:24:43;;;;;;;;;;;;;;;;;;5484841;26;19940;-60
2024/04/27 07:27:09;;;;;;;;;;;;;;;;;;5481445;26;20370;-59
2024/04/27 07:29:35;;;;;;;;;;;;;;;;;;5479360;26;19940;-59
2024/04/27 07:32:01;;;;;;;;;;;;;;;;;;5476672;26;19928;-59
2024/04/27 07:34:27;;;;;;;;;;;;;;;;;;5479808;26;19939;-59
2024/04/27 07:36:53;;;;;;;;;;;;;;;;;;5472286;26;19960;-59
2024/04/27 07:39:19;;;;;;;;;;;;;;;;;;5473043;26;20258;-59
2024/04/27 07:41:45;;;;;;;;;;;;;;;;;;5471590;26;19928;-59
2024/04/27 07:44:11;;;;;;;;;;;;;;;;;;5473410;26;19936;-58
2024/04/27 07:46:37;;;;;;;;;;;;;;;;;;5479905;26;19996;-60
2024/04/27 07:49:02;;;;;;;;;;;;;;;;;;5482839;26;20354;-60
2024/04/27 07:51:31;;;;;;;;;;;;;;;;;;5477083;26;19944;-60
2024/04/27 07:53:57;;;;;;;;;;;;;;;;;;5478228;26;19928;-58
2024/04/27 07:56:22;;;;;;;;;;;;;;;;;;5478345;26;19928;-59
2024/04/27 07:58:49;;;;;;;;;;;;;;;;;;5475570;26;20006;-58
2024/04/27 08:01:15;;;;;;;;;;;;;;;;;;5477496;26;19996;-59
2024/04/27 08:03:41;;;;;;;;;;;;;;;;;;5473963;26;19936;-58
2024/04/27 08:06:07;;;;;;;;;;;;;;;;;;5476058;26;19935;-57
2024/04/27 08:08:33;;;;;;;;;;;;;;;;;;5478201;26;20358;-57
2024/04/27 08:10:58;;;;;;;;;;;;;;;;;;5476846;26;19943;-60
2024/04/27 08:13:24;;;;;;;;;;;;;;;;;;5473271;26;20018;-60
2024/04/27 08:15:50;;;;;;;;;;;;;;;;;;5470119;26;19940;-57
2024/04/27 08:18:16;;;;;;;;;;;;;;;;;;5466020;26;19983;-59
2024/04/27 08:20:42;;;;;;;;;;;;;;;;;;5481182;26;19935;-59
2024/04/27 08:23:08;;;;;;;;;;;;;;;;;;5469927;26;19943;-57
2024/04/27 08:25:34;;;;;;;;;;;;;;;;;;5477835;26;19928;-57
2024/04/27 08:28:00;;;;;;;;;;;;;;;;;;5477846;26;19931;-59
2024/04/27 08:30:25;;;;;;;;;;;;;;;;;;5470462;26;19939;-60
2024/04/27 08:32:51;;;;;;;;;;;;;;;;;;5474731;26;19929;-59
2024/04/27 08:35:17;;;;;;;;;;;;;;;;;;5484248;26;19936;-59
2024/04/27 08:37:43;;;;;;;;;;;;;;;;;;5476368;26;20375;-59
2024/04/27 08:40:09;;;;;;;;;;;;;;;;;;5471573;26;20558;-59
2024/04/27 08:42:35;;;;;;;;;;;;;;;;;;5478658;26;19935;-58
2024/04/27 08:45:01;;;;;;;;;;;;;;;;;;5476565;26;20019;-56
2024/04/27 08:47:26;;;;;;;;;;;;;;;;;;5478523;26;19934;-59
2024/04/27 08:49:52;;;;;;;;;;;;;;;;;;5481886;26;19927;-59
2024/04/27 08:52:18;;;;;;;;;;;;;;;;;;5477364;26;19928;-58
2024/04/27 08:54:44;;;;;;;;;;;;;;;;;;5480815;26;19936;-58
2024/04/27 08:57:10;;;;;;;;;;;;;;;;;;5475601;26;22643;-59
2024/04/27 08:59:36;;;;;;;;;;;;;;;;;;5477038;26;19995;-59
2024/04/27 09:02:02;;;;;;;;;;;;;;;;;;5473221;26;19939;-58
2024/04/27 09:04:28;;;;;;;;;;;;;;;;;;5478955;26;20200;-57
2024/04/27 09:06:54;;;;;;;;;;;;;;;;;;5483277;26;19934;-56
2024/04/27 09:09:20;;;;;;;;;;;;;;;;;;5480782;26;19976;-57
2024/04/27 09:11:46;;;;;;;;;;;;;;;;;;5467286;26;20381;-56
2024/04/27 09:14:11;;;;;;;;;;;;;;;;;;5468881;26;19936;-55
2024/04/27 09:16:37;;;;;;;;;;;;;;;;;;5463335;26;19928;-55
2024/04/27 09:19:03;;;;;;;;;;;;;;;;;;5472673;26;19955;-59
2024/04/27 09:21:29;;;;;;;;;;;;;;;;;;5478042;26;19927;-60
2024/04/27 09:23:55;;;;;;;;;;;;;;;;;;5477484;26;19935;-57
2024/04/27 09:26:21;;;;;;;;;;;;;;;;;;5467876;26;19935;-58
2024/04/27 09:28:47;;;;;;;;;;;;;;;;;;5472301;26;19961;-57
2024/04/27 09:31:13;;;;;;;;;;;;;;;;;;5467579;26;19940;-58
2024/04/27 09:33:39;;;;;;;;;;;;;;;;;;5465116;26;20442;-59
2024/04/27 09:36:05;;;;;;;;;;;;;;;;;;5468335;26;19935;-59
2024/04/27 09:38:31;;;;;;;;;;;;;;;;;;5465882;26;19951;-58
2024/04/27 09:40:57;;;;;;;;;;;;;;;;;;5479518;26;19939;-57
2024/04/27 09:43:22;;;;;;;;;;;;;;;;;;5468972;26;19929;-57
2024/04/27 09:45:48;;;;;;;;;;;;;;;;;;5472784;26;19932;-58
2024/04/27 09:48:14;;;;;;;;;;;;;;;;;;5470577;26;20065;-55
2024/04/27 09:50:41;;;;;;;;;;;;;;;;;;5471597;26;19996;-57
2024/04/27 09:53:07;;;;;;;;;;;;;;;;;;5475503;26;20406;-58
2024/04/27 09:55:35;;;;;;;;;;;;;;;;;;5472163;26;19955;-59
2024/04/27 09:58:00;;;;;;;;;;;;;;;;;;5464446;26;20239;-58
2024/04/27 10:00:26;;;;;;;;;;;;;;;;;;5468243;26;19937;-57
2024/04/27 10:02:52;;;;;;;;;;;;;;;;;;5466118;26;20324;-57
2024/04/27 10:05:18;;;;;;;;;;;;;;;;;;5460419;26;20393;-59
2024/04/27 10:07:44;;;;;;;;;;;;;;;;;;5467604;26;19935;-60
2024/04/27 10:10:10;;;;;;;;;;;;;;;;;;5466484;26;19943;-58
2024/04/27 10:12:36;;;;;;;;;;;;;;;;;;5466998;26;19928;-59
2024/04/27 10:15:03;;;;;;;;;;;;;;;;;;5474115;26;20366;-58
2024/04/27 10:17:29;;;;;;;;;;;;;;;;;;5467285;26;19928;-58
2024/04/27 10:19:56;;;;;;;;;;;;;;;;;;5474399;26;19964;-59
2024/04/27 10:22:22;;;;;;;;;;;;;;;;;;5465874;26;19934;-59
2024/04/27 10:24:48;;;;;;;;;;;;;;;;;;5465472;26;20397;-56
2024/04/27 10:27:14;;;;;;;;;;;;;;;;;;5468133;26;19952;-59
2024/04/27 10:29:40;;;;;;;;;;;;;;;;;;5470968;26;21322;-60
2024/04/27 10:32:06;;;;;;;;;;;;;;;;;;5479700;26;20047;-59
2024/04/27 10:34:32;;;;;;;;;;;;;;;;;;5458173;26;20315;-59
2024/04/27 10:36:59;;;;;;;;;;;;;;;;;;5469076;26;19959;-58
2024/04/27 10:39:25;;;;;;;;;;;;;;;;;;5484229;26;19927;-60
2024/04/27 10:41:51;;;;;;;;;;;;;;;;;;5472238;26;19943;-61
2024/04/27 10:44:18;;;;;;;;;;;;;;;;;;5463973;26;19947;-59
2024/04/27 10:46:44;;;;;;;;;;;;;;;;;;5467124;26;19939;-59
2024/04/27 10:49:10;;;;;;;;;;;;;;;;;;5474827;26;20472;-59
2024/04/27 10:51:36;;;;;;;;;;;;;;;;;;5460099;26;19941;-59
2024/04/27 10:54:02;;;;;;;;;;;;;;;;;;5463002;26;19983;-60
2024/04/27 10:56:28;;;;;;;;;;;;;;;;;;5465407;26;20629;-58
2024/04/27 10:58:54;;;;;;;;;;;;;;;;;;5468440;26;19944;-58
2024/04/27 11:01:20;;;;;;;;;;;;;;;;;;5468844;26;19928;-59
2024/04/27 11:03:45;;;;;;;;;;;;;;;;;;5466937;26;20020;-60
2024/04/27 11:06:11;;;;;;;;;;;;;;;;;;5471497;26;19927;-60
2024/04/27 11:08:37;;;;;;;;;;;;;;;;;;5470481;26;19928;-60
2024/04/27 11:11:03;;;;;;;;;;;;;;;;;;5471288;26;19939;-59
2024/04/27 11:13:29;;;;;;;;;;;;;;;;;;5488027;26;19927;-60
2024/04/27 11:15:55;;;;;;;;;;;;;;;;;;5468622;26;19928;-58
2024/04/27 11:18:21;;;;;;;;;;;;;;;;;;5484767;26;19931;-59
2024/04/27 11:20:47;;;;;;;;;;;;;;;;;;5473342;26;20777;-60
2024/04/27 11:23:12;;;;;;;;;;;;;;;;;;5474972;26;19927;-58
2024/04/27 11:25:38;;;;;;;;;;;;;;;;;;5471256;26;20046;-60
2024/04/27 11:28:05;;;;;;;;;;;;;;;;;;5475627;26;19931;-60
2024/04/27 11:30:31;;;;;;;;;;;;;;;;;;5470433;26;19928;-59
2024/04/27 11:32:57;;;;;;;;;;;;;;;;;;5476856;26;19932;-59
2024/04/27 11:35:23;;;;;;;;;;;;;;;;;;5472602;26;20477;-58
2024/04/27 11:37:49;;;;;;;;;;;;;;;;;;5487263;26;20000;-60
2024/04/27 11:40:15;;;;;;;;;;;;;;;;;;5463475;26;19931;-59
2024/04/27 11:42:41;;;;;;;;;;;;;;;;;;5460617;26;19942;-60
2024/04/27 11:45:06;;;;;;;;;;;;;;;;;;5464659;26;20408;-59
2024/04/27 11:47:32;;;;;;;;;;;;;;;;;;5473481;26;19928;-59
2024/04/27 11:49:58;;;;;;;;;;;;;;;;;;5470004;26;19929;-59
2024/04/27 11:52:24;;;;;;;;;;;;;;;;;;5480398;26;20280;-59
2024/04/27 11:54:51;;;;;;;;;;;;;;;;;;5498388;26;20353;-58
2024/04/27 11:57:17;;;;;;;;;;;;;;;;;;5472038;26;19942;-59
2024/04/27 11:59:43;;;;;;;;;;;;;;;;;;5468209;26;21266;-58
2024/04/27 12:02:09;;;;;;;;;;;;;;;;;;5458410;26;19936;-58
2024/04/27 12:04:35;;;;;;;;;;;;;;;;;;5471571;26;19948;-58
2024/04/27 12:07:01;;;;;;;;;;;;;;;;;;5478014;26;20033;-59
2024/04/27 12:09:27;;;;;;;;;;;;;;;;;;5452377;26;19946;-60
2024/04/27 12:11:52;;;;;;;;;;;;;;;;;;5469501;26;20297;-57
2024/04/27 12:14:18;;;;;;;;;;;;;;;;;;5485749;26;19939;-58
2024/04/27 12:16:44;;;;;;;;;;;;;;;;;;5472495;26;19936;-60
2024/04/27 12:19:10;;;;;;;;;;;;;;;;;;5470080;26;19973;-58
2024/04/27 12:21:36;;;;;;;;;;;;;;;;;;5479458;26;19939;-59
2024/04/27 12:24:02;;;;;;;;;;;;;;;;;;5444387;26;19935;-57
2024/04/27 12:26:34;;;;;;;;;;;;;;;;;;5464994;26;20004;-59
2024/04/27 12:29:00;;;;;;;;;;;;;;;;;;5487771;26;19964;-59
2024/04/27 12:31:26;;;;;;;;;;;;;;;;;;5469305;26;19928;-58
2024/04/27 12:33:52;;;;;;;;;;;;;;;;;;5478004;26;19935;-60
2024/04/27 12:36:18;;;;;;;;;;;;;;;;;;5460321;26;19943;-61
2024/04/27 12:38:44;;;;;;;;;;;;;;;;;;5467159;26;19985;-57
2024/04/27 12:41:09;;;;;;;;;;;;;;;;;;5475310;26;20025;-55
2024/04/27 12:43:35;;;;;;;;;;;;;;;;;;5480293;26;19995;-59
2024/04/27 12:46:01;;;;;;;;;;;;;;;;;;5471867;26;19928;-58
2024/04/27 12:48:27;;;;;;;;;;;;;;;;;;5468306;26;20336;-57
2024/04/27 12:50:55;;;;;;;;;;;;;;;;;;5472396;26;19972;-58
2024/04/27 12:53:21;;;;;;;;;;;;;;;;;;5474570;26;19947;-58
2024/04/27 12:55:47;;;;;;;;;;;;;;;;;;5465128;26;19928;-58
2024/04/27 12:58:13;;;;;;;;;;;;;;;;;;5459032;26;20295;-58
2024/04/27 13:00:38;;;;;;;;;;;;;;;;;;5472124;26;19937;-59
2024/04/27 13:03:04;;;;;;;;;;;;;;;;;;5467990;26;20001;-58
2024/04/27 13:05:32;;;;;;;;;;;;;;;;;;5473267;26;19939;-58
2024/04/27 13:07:58;;;;;;;;;;;;;;;;;;5473819;26;20706;-58
2024/04/27 13:10:23;;;;;;;;;;;;;;;;;;5490395;26;19928;-58
2024/04/27 13:12:49;;;;;;;;;;;;;;;;;;5475545;26;19928;-60
2024/04/27 13:15:15;;;;;;;;;;;;;;;;;;5467685;26;19935;-59
2024/04/27 13:17:41;;;;;;;;;;;;;;;;;;5472976;26;20387;-55
2024/04/27 13:20:07;;;;;;;;;;;;;;;;;;5479364;26;19928;-57
2024/04/27 13:22:33;;;;;;;;;;;;;;;;;;5471099;26;19962;-57
2024/04/27 13:24:59;;;;;;;;;;;;;;;;;;5477400;26;19935;-56
2024/04/27 13:27:24;;;;;;;;;;;;;;;;;;5461860;26;20425;-60
2024/04/27 13:29:50;;;;;;;;;;;;;;;;;;5472797;26;20342;-59
2024/04/27 13:32:16;;;;;;;;;;;;;;;;;;5465780;26;19939;-59
2024/04/27 13:34:42;;;;;;;;;;;;;;;;;;5463353;26;19952;-57
2024/04/27 13:37:08;;;;;;;;;;;;;;;;;;5468077;26;20362;-57
2024/04/27 13:39:34;;;;;;;;;;;;;;;;;;5468335;26;20350;-57
2024/04/27 13:42:00;;;;;;;;;;;;;;;;;;5479148;26;19932;-57
2024/04/27 13:44:26;;;;;;;;;;;;;;;;;;5479698;26;20365;-57
2024/04/27 13:46:51;;;;;;;;;;;;;;;;;;5480515;26;19932;-58
2024/04/27 13:49:18;;;;;;;;;;;;;;;;;;5444351;26;19935;-57
2024/04/27 13:51:44;;;;;;;;;;;;;;;;;;5471332;26;20403;-56
2024/04/27 13:54:09;;;;;;;;;;;;;;;;;;5462757;26;19932;-58
2024/04/27 13:56:35;;;;;;;;;;;;;;;;;;5446425;26;19950;-57
2024/04/27 13:59:01;;;;;;;;;;;;;;;;;;5475755;26;19939;-57
2024/04/27 14:01:27;;;;;;;;;;;;;;;;;;5437158;26;19932;-57
2024/04/27 14:03:53;;;;;;;;;;;;;;;;;;5473720;26;20369;-58
2024/04/27 14:06:19;;;;;;;;;;;;;;;;;;5478078;26;19991;-58
2024/04/27 14:08:45;;;;;;;;;;;;;;;;;;5472247;26;19962;-57
2024/04/27 14:11:11;;;;;;;;;;;;;;;;;;5462057;26;20390;-57
2024/04/27 14:13:36;;;;;;;;;;;;;;;;;;5479850;26;20003;-57
2024/04/27 14:16:02;;;;;;;;;;;;;;;;;;5469094;26;19928;-57
2024/04/27 14:18:28;;;;;;;;;;;;;;;;;;5467076;26;19928;-58
2024/04/27 14:20:54;;;;;;;;;;;;;;;;;;5472194;26;19928;-58
2024/04/27 14:23:20;;;;;;;;;;;;;;;;;;5466817;26;19928;-57
2024/04/27 14:25:46;;;;;;;;;;;;;;;;;;5475224;26;20475;-56
2024/04/27 14:28:12;;;;;;;;;;;;;;;;;;5460332;26;19950;-59
2024/04/27 14:30:38;;;;;;;;;;;;;;;;;;5464014;26;20480;-55
2024/04/27 14:33:03;;;;;;;;;;;;;;;;;;5466099;26;19932;-57
2024/04/27 14:35:29;;;;;;;;;;;;;;;;;;5463547;26;19932;-59
2024/04/27 14:37:55;;;;;;;;;;;;;;;;;;5438866;26;19929;-58
2024/04/27 14:40:21;;;;;;;;;;;;;;;;;;5468642;26;19928;-58
2024/04/27 14:42:47;;;;;;;;;;;;;;;;;;5474013;26;20357;-58
2024/04/27 14:45:13;;;;;;;;;;;;;;;;;;5457578;26;19976;-58
2024/04/27 14:47:39;;;;;;;;;;;;;;;;;;5474466;26;20120;-58
2024/04/27 14:50:04;;;;;;;;;;;;;;;;;;5472096;26;20627;-57
2024/04/27 14:52:30;;;;;;;;;;;;;;;;;;5464386;26;19936;-59
2024/04/27 14:54:56;;;;;;;;;;;;;;;;;;5467558;26;20553;-59
2024/04/27 14:57:22;;;;;;;;;;;;;;;;;;5477653;26;19928;-58
2024/04/27 14:59:48;;;;;;;;;;;;;;;;;;5484831;26;19934;-61
2024/04/27 15:02:14;;;;;;;;;;;;;;;;;;5461690;26;19943;-59
2024/04/27 15:04:40;;;;;;;;;;;;;;;;;;5471016;26;19928;-59
2024/04/27 15:07:06;;;;;;;;;;;;;;;;;;5470774;26;20355;-58
2024/04/27 15:09:31;;;;;;;;;;;;;;;;;;5479916;26;19928;-60
2024/04/27 15:11:57;;;;;;;;;;;;;;;;;;5474979;26;19932;-58
2024/04/27 15:14:23;;;;;;;;;;;;;;;;;;5465339;26;19928;-57
2024/04/27 15:16:53;;;;;;;;;;;;;;;;;;5465985;26;19935;-60
2024/04/27 15:19:19;;;;;;;;;;;;;;;;;;5467276;26;19928;-61
2024/04/27 15:21:45;;;;;;;;;;;;;;;;;;5478612;26;19963;-60
2024/04/27 15:24:11;;;;;;;;;;;;;;;;;;5466004;26;19928;-60
2024/04/27 15:26:37;;;;;;;;;;;;;;;;;;5470300;26;19934;-59
2024/04/27 15:29:02;;;;;;;;;;;;;;;;;;5467867;26;19936;-60
2024/04/27 15:31:28;;;;;;;;;;;;;;;;;;5458353;26;19935;-59
2024/04/27 15:33:54;;;;;;;;;;;;;;;;;;5471021;26;20370;-60
2024/04/27 15:36:20;;;;;;;;;;;;;;;;;;5464411;26;19931;-59
2024/04/27 15:38:48;;;;;;;;;;;;;;;;;;5462636;26;19996;-60
2024/04/27 15:41:14;;;;;;;;;;;;;;;;;;5461386;26;20332;-61
2024/04/27 15:43:39;;;;;;;;;;;;;;;;;;5470533;26;19935;-58
2024/04/27 15:46:05;;;;;;;;;;;;;;;;;;5467528;26;19932;-57
2024/04/27 15:48:31;;;;;;;;;;;;;;;;;;5474955;26;19935;-60
2024/04/27 15:50:57;;;;;;;;;;;;;;;;;;5474961;26;20586;-60
2024/04/27 15:53:23;;;;;;;;;;;;;;;;;;5480207;26;19936;-61
2024/04/27 15:55:49;;;;;;;;;;;;;;;;;;5467499;26;20411;-60
2024/04/27 15:58:15;;;;;;;;;;;;;;;;;;5468515;26;19939;-55
2024/04/27 16:00:40;;;;;;;;;;;;;;;;;;5476090;26;19939;-60
2024/04/27 16:03:06;;;;;;;;;;;;;;;;;;5466367;26;19932;-58
2024/04/27 16:05:32;;;;;;;;;;;;;;;;;;5470276;26;20347;-60
2024/04/27 16:07:58;;;;;;;;;;;;;;;;;;5467483;26;19935;-61
2024/04/27 16:10:24;;;;;;;;;;;;;;;;;;5474949;26;19928;-59
2024/04/27 16:12:50;;;;;;;;;;;;;;;;;;5470740;26;19928;-57
2024/04/27 16:15:17;;;;;;;;;;;;;;;;;;5464895;26;19936;-60
2024/04/27 16:17:43;;;;;;;;;;;;;;;;;;5475527;26;19928;-59
2024/04/27 16:20:09;;;;;;;;;;;;;;;;;;5469748;26;19944;-56
2024/04/27 16:22:35;;;;;;;;;;;;;;;;;;5465115;26;19999;-59
2024/04/27 16:25:01;;;;;;;;;;;;;;;;;;5468277;26;19977;-59
2024/04/27 16:27:27;;;;;;;;;;;;;;;;;;5469239;26;19931;-60
2024/04/27 16:29:53;;;;;;;;;;;;;;;;;;5462552;26;19929;-60
2024/04/27 16:32:19;;;;;;;;;;;;;;;;;;5466212;26;20381;-58
2024/04/27 16:34:46;;;;;;;;;;;;;;;;;;5470727;26;19928;-59
2024/04/27 16:37:11;;;;;;;;;;;;;;;;;;5455595;26;19996;-59
2024/04/27 16:39:37;;;;;;;;;;;;;;;;;;5465915;26;19940;-58